Time;durP1;ratioP1;P1;durP2;ratioP2;P2;SDS_P1;SDS_P2;PMS_P1;PMS_P2;Temp;Humidity;BMP_temperature;BMP_pressure;BME280_temperature;BME280_humidity;BME280_pressure;Samples;Min_cycle;Max_cycle;Signal;HPM_P1;HPM_P2
2022/09/01 00:01:27;;;;;;;1.58;1.33;;;9.90;99.90;;;;;;5036487;28;20477;-70
2022/09/01 00:03:54;;;;;;;1.40;1.30;;;9.90;99.90;;;;;;5037109;28;20029;-70
2022/09/01 00:06:21;;;;;;;4.07;1.42;;;9.80;99.90;;;;;;5036547;28;20521;-70
2022/09/01 00:08:48;;;;;;;3.33;1.52;;;9.80;99.90;;;;;;5037037;28;20029;-71
2022/09/01 00:11:14;;;;;;;2.58;1.55;;;9.70;99.90;;;;;;5036390;28;20381;-70
2022/09/01 00:13:40;;;;;;;1.35;1.20;;;9.60;99.90;;;;;;5035816;28;20028;-71
2022/09/01 00:16:06;;;;;;;2.97;1.50;;;9.50;99.90;;;;;;5036447;28;20033;-70
2022/09/01 00:18:32;;;;;;;1.70;1.58;;;9.50;99.90;;;;;;5036403;28;20025;-71
2022/09/01 00:20:58;;;;;;;1.45;1.35;;;9.40;99.90;;;;;;5036483;28;20098;-70
2022/09/01 00:23:26;;;;;;;5.28;1.25;;;9.40;99.90;;;;;;5036416;28;20032;-70
2022/09/01 00:25:52;;;;;;;1.88;1.17;;;9.30;99.90;;;;;;5036315;28;20033;-70
2022/09/01 00:28:17;;;;;;;1.65;1.30;;;9.30;99.90;;;;;;5035777;28;20075;-70
2022/09/01 00:30:43;;;;;;;1.85;1.30;;;9.20;99.90;;;;;;5036118;28;20029;-70
2022/09/01 00:33:10;;;;;;;1.95;1.45;;;9.20;99.90;;;;;;5035922;28;20018;-70
2022/09/01 00:35:35;;;;;;;2.55;1.95;;;9.20;99.90;;;;;;5035273;28;20117;-70
2022/09/01 00:38:01;;;;;;;1.65;1.55;;;9.10;99.90;;;;;;5036019;28;20056;-70
2022/09/01 00:40:27;;;;;;;3.30;2.15;;;9.20;99.90;;;;;;5036228;28;20072;-71
2022/09/01 00:42:52;;;;;;;1.98;1.60;;;9.20;99.90;;;;;;5035980;28;20393;-70
2022/09/01 00:45:20;;;;;;;2.20;1.70;;;9.10;99.90;;;;;;5035666;28;20032;-70
2022/09/01 00:47:46;;;;;;;2.50;1.60;;;9.10;99.90;;;;;;5035863;28;20450;-70
2022/09/01 00:50:15;;;;;;;1.80;1.70;;;9.20;99.90;;;;;;5035807;28;20029;-71
2022/09/01 00:52:53;;;;;;;2.38;1.98;;;9.10;99.90;;;;;;5035482;28;20465;-70
2022/09/01 00:55:30;;;;;;;3.13;2.00;;;9.10;99.90;;;;;;5035203;28;20030;-70
2022/09/01 00:57:58;;;;;;;5.95;2.08;;;9.10;99.90;;;;;;5035850;28;20481;-70
2022/09/01 01:00:27;;;;;;;2.58;2.00;;;9.10;99.90;;;;;;5035356;28;20033;-70
2022/09/01 01:02:54;;;;;;;2.67;2.30;;;9.10;99.90;;;;;;5035262;28;20041;-70
2022/09/01 01:05:22;;;;;;;3.60;2.33;;;9.10;99.90;;;;;;5035487;28;20025;-70
2022/09/01 01:07:48;;;;;;;3.30;1.90;;;9.20;99.90;;;;;;5035240;28;20063;-70
2022/09/01 01:10:16;;;;;;;2.85;2.40;;;9.20;99.90;;;;;;5035446;28;20029;-70
2022/09/01 01:12:43;;;;;;;10.00;2.05;;;9.20;99.90;;;;;;5035395;28;20034;-70
2022/09/01 01:15:11;;;;;;;2.03;1.58;;;9.20;99.90;;;;;;5035226;28;20014;-70
2022/09/01 01:17:37;;;;;;;3.05;2.05;;;9.20;99.90;;;;;;5034848;28;20017;-70
2022/09/01 01:23:05;;;;;;;4.47;2.58;;;9.10;99.90;;;;;;5035070;28;20400;-71
2022/09/01 01:25:50;;;;;;;2.45;2.13;;;9.10;99.90;;;;;;5035368;28;20021;-70
2022/09/01 01:28:28;;;;;;;2.53;2.13;;;9.00;99.90;;;;;;5034987;28;20025;-70
2022/09/01 01:31:00;;;;;;;2.38;1.95;;;8.90;99.90;;;;;;5035266;28;20484;-70
2022/09/01 01:33:32;;;;;;;3.40;2.17;;;8.90;99.90;;;;;;5028435;28;20029;-70
2022/09/01 01:35:58;;;;;;;2.30;2.10;;;8.90;99.90;;;;;;5015401;28;20046;-70
2022/09/01 01:38:26;;;;;;;3.00;2.10;;;8.90;99.90;;;;;;5015079;28;20029;-70
2022/09/01 01:40:53;;;;;;;3.05;2.05;;;8.80;99.90;;;;;;5013833;28;20113;-70
2022/09/01 01:43:20;;;;;;;4.55;2.40;;;8.80;99.90;;;;;;5014708;28;20076;-70
2022/09/01 01:45:50;;;;;;;7.38;2.80;;;8.80;99.90;;;;;;5024522;28;20032;-70
2022/09/01 01:48:21;;;;;;;3.00;2.22;;;8.80;99.90;;;;;;5035007;28;20381;-70
2022/09/01 01:50:48;;;;;;;3.97;2.15;;;8.80;99.90;;;;;;5034573;28;20045;-70
2022/09/01 01:53:16;;;;;;;2.72;2.00;;;8.80;99.90;;;;;;5034733;28;20104;-70
2022/09/01 01:55:42;;;;;;;4.13;1.92;;;8.70;99.90;;;;;;5035094;28;20032;-70
2022/09/01 01:58:10;;;;;;;3.42;1.92;;;8.70;99.90;;;;;;5049644;28;20094;-70
2022/09/01 02:00:36;;;;;;;3.42;2.17;;;8.70;99.90;;;;;;5034294;28;20025;-70
2022/09/01 02:03:04;;;;;;;5.00;2.10;;;8.70;99.90;;;;;;5033666;28;20063;-70
2022/09/01 02:05:31;;;;;;;2.35;2.10;;;8.60;99.90;;;;;;5034727;28;20021;-70
2022/09/01 02:08:03;;;;;;;2.65;2.13;;;8.60;99.90;;;;;;5033795;28;20024;-70
2022/09/01 02:10:35;;;;;;;4.97;2.75;;;8.60;99.90;;;;;;5034307;28;20028;-70
2022/09/01 02:13:05;;;;;;;2.40;2.20;;;8.60;99.90;;;;;;5034583;28;20028;-70
2022/09/01 02:15:39;;;;;;;2.35;2.15;;;8.50;99.90;;;;;;5033783;28;20021;-70
2022/09/01 02:18:05;;;;;;;3.95;2.20;;;8.50;99.90;;;;;;5034168;28;20026;-70
2022/09/01 02:20:31;;;;;;;2.45;2.25;;;8.50;99.90;;;;;;5034214;28;20083;-70
2022/09/01 02:23:01;;;;;;;3.33;2.45;;;8.40;99.90;;;;;;5034201;28;20017;-70
2022/09/01 02:25:26;;;;;;;2.92;2.30;;;8.40;99.90;;;;;;5034095;28;20063;-70
2022/09/01 02:27:54;;;;;;;2.90;2.30;;;8.30;99.90;;;;;;5033503;28;20132;-70
2022/09/01 02:30:23;;;;;;;2.40;2.15;;;8.30;99.90;;;;;;5034548;28;20092;-70
2022/09/01 02:32:49;;;;;;;2.78;2.30;;;8.30;99.90;;;;;;5033867;28;20045;-70
2022/09/01 02:35:15;;;;;;;2.15;1.92;;;8.20;99.90;;;;;;5033970;28;20058;-71
2022/09/01 02:37:41;;;;;;;2.78;2.22;;;8.20;99.90;;;;;;5033984;28;20060;-70
2022/09/01 02:40:11;;;;;;;2.42;2.15;;;8.20;99.90;;;;;;5034357;28;20053;-70
2022/09/01 02:42:42;;;;;;;2.38;2.13;;;8.20;99.90;;;;;;5033193;28;20030;-70
2022/09/01 02:45:10;;;;;;;8.77;1.95;;;8.20;99.90;;;;;;5034352;28;20105;-71
2022/09/01 02:47:40;;;;;;;2.65;1.92;;;8.20;99.90;;;;;;5033753;28;20021;-71
2022/09/01 02:50:12;;;;;;;3.78;2.72;;;8.10;99.90;;;;;;5034326;28;20100;-71
2022/09/01 02:52:39;;;;;;;3.22;2.53;;;8.10;99.90;;;;;;5033529;28;20025;-70
2022/09/01 02:55:06;;;;;;;2.55;2.25;;;8.00;99.90;;;;;;5033131;28;20032;-70
2022/09/01 02:57:33;;;;;;;2.67;2.35;;;8.00;99.90;;;;;;5033128;28;20025;-70
2022/09/01 02:59:59;;;;;;;4.25;2.40;;;8.00;99.90;;;;;;5033546;28;20013;-70
2022/09/01 03:02:27;;;;;;;2.13;1.67;;;8.00;99.90;;;;;;5033285;28;20452;-70
2022/09/01 03:04:54;;;;;;;2.22;1.98;;;7.90;99.90;;;;;;5033027;28;20033;-70
2022/09/01 03:07:25;;;;;;;2.47;2.08;;;7.90;99.90;;;;;;5034037;28;20025;-70
2022/09/01 03:09:51;;;;;;;3.08;2.05;;;7.90;99.90;;;;;;5033796;28;20022;-70
2022/09/01 03:12:18;;;;;;;2.38;1.90;;;7.90;99.90;;;;;;5033711;28;20533;-70
2022/09/01 03:14:44;;;;;;;5.45;2.38;;;7.90;99.90;;;;;;5033784;28;20075;-70
2022/09/01 03:17:10;;;;;;;4.30;2.70;;;8.00;99.90;;;;;;5032918;28;20029;-69
2022/09/01 03:19:43;;;;;;;3.63;2.90;;;8.00;99.90;;;;;;5033648;28;20373;-70
2022/09/01 03:22:08;;;;;;;4.32;2.70;;;8.00;99.90;;;;;;5033467;28;20097;-70
2022/09/01 03:24:35;;;;;;;2.80;2.50;;;8.00;99.90;;;;;;5032874;28;20534;-70
2022/09/01 03:27:00;;;;;;;3.35;2.50;;;8.10;99.90;;;;;;5033374;28;20057;-71
2022/09/01 03:29:26;;;;;;;9.88;2.55;;;8.10;99.90;;;;;;5033225;28;20060;-70
2022/09/01 03:31:51;;;;;;;4.15;2.60;;;8.10;99.90;;;;;;5033210;28;20087;-70
2022/09/01 03:34:19;;;;;;;2.95;2.28;;;8.00;99.90;;;;;;5033428;28;20389;-70
2022/09/01 03:36:49;;;;;;;3.40;2.78;;;8.10;99.90;;;;;;5032745;28;20428;-70
2022/09/01 03:39:16;;;;;;;5.53;2.70;;;8.10;99.90;;;;;;5033863;28;20105;-70
2022/09/01 03:41:43;;;;;;;4.32;2.58;;;8.20;99.90;;;;;;5033070;28;20029;-70
2022/09/01 03:44:10;;;;;;;2.85;2.35;;;8.20;99.90;;;;;;5033244;28;20060;-70
2022/09/01 03:46:39;;;;;;;2.55;2.35;;;8.10;99.90;;;;;;5033334;28;20022;-71
2022/09/01 03:49:11;;;;;;;5.35;2.60;;;8.10;99.90;;;;;;5033199;28;20082;-71
2022/09/01 03:51:37;;;;;;;4.35;2.60;;;8.00;99.90;;;;;;5032586;28;20028;-70
2022/09/01 03:54:03;;;;;;;3.35;2.25;;;8.00;99.90;;;;;;5033255;28;20036;-70
2022/09/01 03:56:29;;;;;;;3.28;2.88;;;8.00;99.90;;;;;;5033117;28;20465;-70
2022/09/01 03:58:58;;;;;;;2.38;2.08;;;7.90;99.90;;;;;;5033083;28;20096;-70
2022/09/01 04:01:26;;;;;;;2.28;2.08;;;7.90;99.90;;;;;;5032904;28;20037;-70
2022/09/01 04:03:52;;;;;;;3.90;2.88;;;7.90;99.90;;;;;;5033047;28;20021;-71
2022/09/01 04:06:20;;;;;;;2.97;2.10;;;7.90;99.90;;;;;;5032461;28;20104;-70
2022/09/01 04:08:46;;;;;;;3.90;2.65;;;7.90;99.90;;;;;;5033857;28;20032;-70
2022/09/01 04:11:17;;;;;;;3.13;2.20;;;7.80;99.90;;;;;;5036750;28;20026;-70
2022/09/01 04:13:43;;;;;;;3.45;2.65;;;7.80;99.90;;;;;;5036519;28;20108;-70
2022/09/01 04:18:08;;;;;;;10.80;3.17;;;7.80;99.90;;;;;;5035970;28;20458;-70
2022/09/01 04:19:18;;;;;;;6.97;3.35;;;7.70;99.90;;;;;;5036273;28;20033;-70
2022/09/01 04:21:50;;;;;;;3.95;2.60;;;7.70;99.90;;;;;;5036530;28;20076;-70
2022/09/01 04:24:17;;;;;;;4.32;2.60;;;7.70;99.90;;;;;;5036888;28;20025;-70
2022/09/01 04:26:45;;;;;;;2.53;2.30;;;7.70;99.90;;;;;;5035900;28;20477;-70
2022/09/01 04:29:11;;;;;;;4.47;2.92;;;7.60;99.90;;;;;;5036220;28;20029;-70
2022/09/01 04:31:39;;;;;;;7.93;2.47;;;7.60;99.90;;;;;;5036222;28;20029;-70
2022/09/01 04:34:12;;;;;;;3.15;2.60;;;7.60;99.90;;;;;;5035878;28;20032;-70
2022/09/01 04:36:40;;;;;;;2.20;1.77;;;7.60;99.90;;;;;;5035995;28;20013;-70
2022/09/01 04:39:11;;;;;;;3.10;2.30;;;7.60;99.90;;;;;;5036017;28;20092;-70
2022/09/01 04:41:39;;;;;;;4.85;2.63;;;7.60;99.90;;;;;;5035933;28;20028;-70
2022/09/01 04:44:06;;;;;;;3.55;2.80;;;7.60;99.90;;;;;;5035927;28;20028;-70
2022/09/01 04:46:34;;;;;;;5.60;3.05;;;7.60;99.90;;;;;;5036254;28;20037;-70
2022/09/01 04:49:06;;;;;;;4.15;2.83;;;7.60;99.90;;;;;;5036175;28;20029;-70
2022/09/01 04:51:34;;;;;;;6.50;3.20;;;7.70;99.90;;;;;;5035405;28;20083;-70
2022/09/01 04:54:01;;;;;;;3.50;2.78;;;7.70;99.90;;;;;;5035686;28;20021;-70
2022/09/01 04:56:29;;;;;;;4.43;3.13;;;7.70;99.90;;;;;;5035993;28;20375;-70
2022/09/01 04:58:55;;;;;;;3.78;3.15;;;7.80;99.90;;;;;;5035161;28;20014;-70
2022/09/01 05:01:24;;;;;;;7.80;3.38;;;7.80;99.90;;;;;;5050708;28;20040;-70
2022/09/01 05:04:00;;;;;;;4.72;2.85;;;7.90;99.90;;;;;;5050945;28;20450;-70
2022/09/01 05:06:27;;;;;;;3.00;2.50;;;7.90;99.90;;;;;;5034703;28;20020;-70
2022/09/01 05:08:56;;;;;;;4.80;2.70;;;8.00;99.90;;;;;;5035497;28;20485;-71
2022/09/01 05:11:22;;;;;;;3.42;2.63;;;8.00;99.90;;;;;;5035324;28;20021;-70
2022/09/01 05:13:49;;;;;;;3.47;2.80;;;8.10;99.90;;;;;;5034955;28;20031;-69
2022/09/01 05:16:20;;;;;;;4.97;2.92;;;8.10;99.90;;;;;;5035434;28;20079;-70
2022/09/01 05:18:48;;;;;;;4.60;3.10;;;8.20;99.90;;;;;;5035531;28;20014;-70
2022/09/01 05:21:16;;;;;;;3.35;2.83;;;8.30;99.90;;;;;;5034932;28;20041;-70
2022/09/01 05:23:45;;;;;;;4.15;3.08;;;8.40;99.90;;;;;;5050504;28;20025;-70
2022/09/01 05:26:25;;;;;;;3.45;2.65;;;8.50;99.90;;;;;;5034701;28;20017;-70
2022/09/01 05:28:54;;;;;;;4.57;3.40;;;8.60;99.90;;;;;;5035430;28;20025;-70
2022/09/01 05:31:21;;;;;;;3.50;3.20;;;8.80;99.90;;;;;;5035479;28;20172;-70
2022/09/01 05:33:48;;;;;;;4.32;3.58;;;8.90;99.90;;;;;;5034974;28;20033;-70
2022/09/01 05:36:16;;;;;;;4.10;3.45;;;9.10;99.90;;;;;;5034686;28;20018;-70
2022/09/01 05:38:43;;;;;;;5.18;3.95;;;9.20;99.90;;;;;;5034976;28;20029;-70
2022/09/01 05:41:13;;;;;;;3.67;3.00;;;9.40;99.90;;;;;;5035089;28;20044;-70
2022/09/01 05:43:45;;;;;;;6.93;3.03;;;9.60;99.90;;;;;;5034926;28;20030;-70
2022/09/01 05:46:14;;;;;;;7.90;3.47;;;9.80;99.90;;;;;;5035266;28;20029;-71
2022/09/01 05:48:41;;;;;;;5.72;4.07;;;10.00;99.90;;;;;;5034123;28;20383;-70
2022/09/01 05:51:08;;;;;;;7.85;3.85;;;10.20;99.90;;;;;;5034931;28;20484;-70
2022/09/01 05:53:33;;;;;;;8.77;3.80;;;10.40;99.90;;;;;;5034428;28;20108;-70
2022/09/01 05:56:06;;;;;;;9.77;4.38;;;10.60;99.90;;;;;;5049928;28;20045;-71
2022/09/01 05:58:33;;;;;;;4.57;4.07;;;10.80;99.90;;;;;;5034807;28;20100;-70
2022/09/01 06:01:00;;;;;;;6.38;3.22;;;11.00;99.90;;;;;;5032941;28;20025;-70
2022/09/01 06:03:27;;;;;;;5.30;3.67;;;11.20;99.90;;;;;;5034505;28;20067;-70
2022/09/01 06:05:55;;;;;;;5.63;3.17;;;11.30;99.90;;;;;;5034375;28;20017;-70
2022/09/01 06:08:24;;;;;;;5.47;3.72;;;11.30;99.90;;;;;;5034330;28;20022;-70
2022/09/01 06:10:51;;;;;;;3.83;3.30;;;11.40;99.90;;;;;;5033782;28;20034;-70
2022/09/01 06:13:20;;;;;;;5.90;3.90;;;11.50;99.90;;;;;;5034054;28;20041;-70
2022/09/01 06:15:47;;;;;;;9.75;5.05;;;11.70;99.90;;;;;;5034599;28;20116;-71
2022/09/01 06:18:13;;;;;;;6.70;3.50;;;12.00;99.90;;;;;;5034125;28;20090;-71
2022/09/01 06:20:43;;;;;;;3.95;3.55;;;12.20;99.90;;;;;;5033504;28;20533;-70
2022/09/01 06:23:14;;;;;;;7.30;4.22;;;12.50;99.90;;;;;;5034297;28;20014;-71
2022/09/01 06:25:44;;;;;;;4.57;3.63;;;12.70;99.90;;;;;;5034425;28;20100;-70
2022/09/01 06:28:11;;;;;;;4.60;2.92;;;13.00;99.90;;;;;;5034313;28;20462;-70
2022/09/01 06:30:38;;;;;;;4.78;3.05;;;13.30;99.90;;;;;;5034353;28;20076;-70
2022/09/01 06:33:08;;;;;;;4.35;3.92;;;13.60;99.90;;;;;;5033404;28;20076;-70
2022/09/01 06:35:35;;;;;;;5.82;3.30;;;13.70;99.90;;;;;;5033271;28;20450;-70
2022/09/01 06:38:01;;;;;;;5.15;3.05;;;13.80;99.90;;;;;;5033738;28;20092;-70
2022/09/01 06:40:27;;;;;;;4.30;3.05;;;14.10;99.90;;;;;;5034134;28;20041;-70
2022/09/01 06:42:53;;;;;;;4.85;2.45;;;14.30;99.90;;;;;;5033900;28;20454;-70
2022/09/01 06:45:21;;;;;;;2.67;2.40;;;14.50;99.90;;;;;;5034358;28;20074;-70
2022/09/01 06:47:49;;;;;;;5.43;2.90;;;14.70;99.90;;;;;;5033782;28;20028;-70
2022/09/01 06:50:18;;;;;;;7.22;2.28;;;15.00;99.90;;;;;;5033749;28;20022;-70
2022/09/01 06:52:44;;;;;;;10.25;2.40;;;15.20;99.90;;;;;;5032310;28;20504;-70
2022/09/01 06:55:12;;;;;;;4.82;2.40;;;15.40;99.90;;;;;;5033439;28;20497;-70
2022/09/01 06:57:39;;;;;;;4.00;2.33;;;15.60;99.90;;;;;;5033580;28;20088;-71
2022/09/01 07:00:16;;;;;;;3.53;1.90;;;15.80;99.90;;;;;;5033038;28;20500;-70
2022/09/01 07:02:47;;;;;;;4.13;1.75;;;16.00;99.90;;;;;;5033401;28;20400;-70
2022/09/01 07:05:17;;;;;;;3.60;2.05;;;16.20;99.90;;;;;;5033682;28;20040;-70
2022/09/01 07:07:53;;;;;;;2.38;1.55;;;16.30;99.90;;;;;;5033648;28;20037;-70
2022/09/01 07:10:21;;;;;;;3.65;1.60;;;16.50;99.90;;;;;;5033748;28;20029;-70
2022/09/01 07:12:48;;;;;;;4.97;1.58;;;16.70;99.90;;;;;;5033450;28;20021;-71
2022/09/01 07:15:15;;;;;;;2.95;1.77;;;16.90;99.90;;;;;;5032739;28;20032;-71
2022/09/01 07:17:47;;;;;;;5.93;1.58;;;17.10;99.90;;;;;;5033343;28;20018;-69
2022/09/01 07:20:14;;;;;;;3.58;1.38;;;17.30;99.90;;;;;;5034430;28;20413;-71
2022/09/01 07:22:40;;;;;;;2.28;1.25;;;17.50;99.90;;;;;;5032876;28;20079;-71
2022/09/01 07:25:10;;;;;;;3.60;1.17;;;17.70;99.90;;;;;;5033685;28;20033;-72
2022/09/01 07:27:35;;;;;;;3.17;1.30;;;18.00;99.90;;;;;;5033430;28;20031;-72
2022/09/01 07:30:02;;;;;;;1.95;1.13;;;18.20;99.90;;;;;;5033360;28;20021;-71
2022/09/01 07:32:29;;;;;;;2.13;1.02;;;18.30;99.90;;;;;;5033359;28;20077;-72
2022/09/01 07:34:55;;;;;;;1.90;1.23;;;18.50;99.90;;;;;;5033679;28;20351;-70
2022/09/01 07:37:21;;;;;;;6.82;1.10;;;18.70;99.90;;;;;;5032832;28;20028;-70
2022/09/01 07:39:47;;;;;;;3.28;0.93;;;18.80;99.90;;;;;;5033382;28;20390;-69
2022/09/01 07:42:15;;;;;;;2.58;1.50;;;19.10;99.90;;;;;;5033815;28;20022;-69
2022/09/01 07:44:41;;;;;;;2.05;1.00;;;19.10;99.90;;;;;;5036149;28;20045;-69
2022/09/01 07:47:08;;;;;;;3.85;1.38;;;19.30;99.90;;;;;;5037310;28;20496;-70
2022/09/01 07:49:36;;;;;;;2.72;1.10;;;19.40;99.90;;;;;;5037230;28;20478;-69
2022/09/01 07:52:03;;;;;;;2.20;0.90;;;19.50;99.90;;;;;;5036428;28;20025;-70
2022/09/01 07:54:30;;;;;;;0.80;0.80;;;19.70;99.90;;;;;;5036891;28;20370;-70
2022/09/01 07:56:55;;;;;;;1.40;1.00;;;19.80;99.90;;;;;;5037135;28;20029;-69
2022/09/01 07:59:22;;;;;;;1.67;0.80;;;20.00;99.90;;;;;;5036407;28;20071;-69
2022/09/01 08:01:48;;;;;;;1.92;0.90;;;20.20;99.90;;;;;;5037289;28;20076;-67
2022/09/01 08:04:15;;;;;;;6.18;1.08;;;20.40;99.90;;;;;;5036671;28;20033;-67
2022/09/01 08:06:41;;;;;;;3.85;0.85;;;20.50;99.90;;;;;;5036786;28;20144;-67
2022/09/01 08:09:07;;;;;;;2.53;1.00;;;20.70;99.90;;;;;;5036558;28;20113;-67
2022/09/01 08:11:33;;;;;;;1.45;0.85;;;20.80;99.90;;;;;;5036139;28;20545;-67
2022/09/01 08:13:59;;;;;;;1.55;0.88;;;21.00;99.90;;;;;;5036492;28;20034;-68
2022/09/01 08:16:29;;;;;;;2.58;0.90;;;21.00;99.90;;;;;;5036673;28;20074;-67
2022/09/01 08:18:55;;;;;;;1.77;1.00;;;21.00;99.90;;;;;;5036591;28;20025;-67
2022/09/01 08:21:22;;;;;;;3.83;0.70;;;21.20;99.90;;;;;;5036077;28;20029;-67
2022/09/01 08:23:53;;;;;;;1.50;0.85;;;21.40;99.90;;;;;;5036336;28;20026;-67
2022/09/01 08:26:21;;;;;;;4.30;1.10;;;21.50;99.90;;;;;;5036283;28;20041;-67
2022/09/01 08:28:47;;;;;;;0.60;0.60;;;21.80;99.90;;;;;;5036421;28;20032;-67
2022/09/01 08:31:16;;;;;;;3.92;1.05;;;22.00;99.90;;;;;;5036204;28;20370;-68
2022/09/01 08:33:44;;;;;;;2.92;0.93;;;22.00;99.90;;;;;;5028359;28;20026;-68
2022/09/01 08:36:11;;;;;;;2.53;0.80;;;21.80;99.90;;;;;;5016423;28;20097;-68
2022/09/01 08:38:37;;;;;;;4.10;1.27;;;21.70;99.90;;;;;;5016263;28;20053;-67
2022/09/01 08:41:11;;;;;;;11.63;1.38;;;21.90;99.90;;;;;;5018806;28;20469;-68
2022/09/01 08:43:45;;;;;;;43.22;3.20;;;22.10;99.90;;;;;;5034745;28;20036;-68
2022/09/01 08:46:24;;;;;;;34.25;4.10;;;21.80;99.90;;;;;;5035824;28;20033;-67
2022/09/01 08:48:53;;;;;;;34.17;3.58;;;21.40;99.90;;;;;;5036329;28;20465;-67
2022/09/01 08:51:23;;;;;;;19.48;2.67;;;21.00;99.90;;;;;;5035209;28;20072;-68
2022/09/01 08:53:59;;;;;;;3.80;1.05;;;20.80;99.90;;;;;;5035963;28;20022;-67
2022/09/01 08:56:25;;;;;;;3.20;0.70;;;20.40;99.90;;;;;;5050511;28;20025;-68
2022/09/01 08:58:51;;;;;;;1.08;0.80;;;20.30;99.90;;;;;;5035862;28;20057;-68
2022/09/01 09:01:28;;;;;;;4.10;0.82;;;20.20;99.90;;;;;;5035530;28;20032;-68
2022/09/01 09:04:19;;;;;;;0.60;0.57;;;20.10;99.90;;;;;;5035286;28;20029;-68
2022/09/01 09:06:59;;;;;;;0.73;0.60;;;20.10;99.90;;;;;;5035338;28;20036;-68
2022/09/01 09:09:37;;;;;;;2.13;0.80;;;20.00;99.90;;;;;;5035931;28;20080;-67
2022/09/01 09:12:34;;;;;;;3.95;0.90;;;19.80;99.90;;;;;;5035704;28;20116;-68
2022/09/01 09:15:13;;;;;;;0.93;0.70;;;19.60;99.90;;;;;;5036185;28;20030;-68
2022/09/01 09:17:48;;;;;;;2.45;1.00;;;19.60;99.90;;;;;;5035588;28;20072;-68
2022/09/01 09:20:14;;;;;;;3.15;1.20;;;19.60;99.90;;;;;;5035332;28;20072;-68
2022/09/01 09:22:41;;;;;;;3.13;1.20;;;19.60;99.90;;;;;;5033956;28;20033;-69
2022/09/01 09:25:13;;;;;;;4.40;1.13;;;19.80;99.90;;;;;;5033365;28;20018;-69
2022/09/01 09:27:42;;;;;;;2.53;1.15;;;20.20;99.90;;;;;;5034207;28;20030;-69
2022/09/01 09:30:26;;;;;;;3.58;0.80;;;20.90;99.90;;;;;;5034856;28;20390;-69
2022/09/01 09:32:54;;;;;;;2.55;0.93;;;21.90;99.90;;;;;;5034662;28;20053;-68
2022/09/01 09:35:44;;;;;;;1.90;0.77;;;22.60;99.90;;;;;;5034956;28;20462;-68
2022/09/01 09:38:21;;;;;;;0.77;0.77;;;23.20;99.90;;;;;;5034906;28;20544;-69
2022/09/01 09:41:07;;;;;;;1.52;0.95;;;23.90;99.90;;;;;;5034479;28;20096;-68
2022/09/01 09:43:39;;;;;;;4.88;1.27;;;23.90;99.90;;;;;;5034901;28;20025;-68
2022/09/01 09:46:30;;;;;;;3.42;0.85;;;24.00;99.90;;;;;;5034544;28;20017;-68
2022/09/01 09:49:12;;;;;;;3.97;0.80;;;24.10;99.90;;;;;;5022238;28;20033;-69
2022/09/01 09:51:44;;;;;;;8.45;0.57;;;23.90;99.90;;;;;;5014620;28;20041;-69
2022/09/01 09:54:12;;;;;;;2.30;0.63;;;24.40;99.90;;;;;;5014894;28;20470;-69
2022/09/01 09:56:40;;;;;;;2.67;1.08;;;24.80;99.90;;;;;;5017883;28;20104;-68
2022/09/01 09:59:20;;;;;;;0.85;0.57;;;25.20;99.90;;;;;;5034423;28;20480;-69
2022/09/01 10:01:50;;;;;;;1.00;0.55;;;25.70;99.90;;;;;;5033780;28;20041;-69
2022/09/01 10:04:33;;;;;;;1.83;0.57;;;25.90;99.90;;;;;;5035068;28;20021;-67
2022/09/01 10:06:59;;;;;;;0.80;0.63;;;26.00;99.90;;;;;;5034118;28;20171;-68
2022/09/01 10:09:25;;;;;;;1.23;0.60;;;25.90;99.90;;;;;;5034163;28;20527;-68
2022/09/01 10:11:56;;;;;;;3.58;0.52;;;26.20;99.90;;;;;;5033476;28;20124;-68
2022/09/01 10:14:33;;;;;;;8.73;0.77;;;26.30;99.90;;;;;;5034489;28;20366;-66
2022/09/01 10:17:09;;;;;;;3.50;0.60;;;26.30;99.90;;;;;;5034208;28;20064;-68
2022/09/01 10:19:39;;;;;;;0.98;0.70;;;26.20;99.90;;;;;;5033912;28;20026;-68
2022/09/01 10:22:04;;;;;;;0.82;0.50;;;25.40;99.90;;;;;;5034129;28;20028;-68
2022/09/01 10:24:36;;;;;;;1.85;0.80;;;24.80;99.90;;;;;;5033350;28;20034;-69
2022/09/01 10:27:09;;;;;;;1.20;0.60;;;24.70;99.90;;;;;;5033811;28;20029;-69
2022/09/01 10:29:51;;;;;;;0.65;0.60;;;24.60;99.90;;;;;;5034103;28;20381;-66
2022/09/01 10:32:23;;;;;;;2.10;0.90;;;24.60;99.90;;;;;;5033799;28;20060;-68
2022/09/01 10:34:49;;;;;;;1.80;0.40;;;24.20;99.90;;;;;;5033804;28;20103;-68
2022/09/01 10:37:16;;;;;;;2.92;0.80;;;24.30;99.90;;;;;;5033368;28;20084;-68
2022/09/01 10:40:15;;;;;;;0.95;0.60;;;24.00;99.90;;;;;;5033739;28;20045;-68
2022/09/01 10:42:43;;;;;;;0.70;0.70;;;23.50;99.90;;;;;;5033602;28;20040;-68
2022/09/01 10:45:30;;;;;;;2.67;0.63;;;23.60;99.90;;;;;;5033087;28;20033;-68
2022/09/01 10:48:18;;;;;;;0.95;0.65;;;24.10;99.90;;;;;;5033816;28;20031;-68
2022/09/01 10:50:45;;;;;;;3.22;0.60;;;24.70;99.90;;;;;;5033257;28;20074;-68
2022/09/01 10:53:34;;;;;;;3.28;0.73;;;25.40;99.90;;;;;;5034233;28;20535;-68
2022/09/01 10:56:02;;;;;;;0.75;0.60;;;25.80;99.90;;;;;;5032984;28;20053;-69
2022/09/01 10:58:45;;;;;;;3.05;0.55;;;25.80;99.90;;;;;;5033919;28;20030;-67
2022/09/01 11:01:10;;;;;;;1.75;0.70;;;25.50;99.90;;;;;;5033140;28;20026;-68
2022/09/01 11:03:44;;;;;;;5.65;0.47;;;25.80;99.90;;;;;;5033741;28;20373;-68
2022/09/01 11:06:31;;;;;;;5.35;0.93;;;25.60;99.90;;;;;;5033524;28;20029;-68
2022/09/01 11:09:03;;;;;;;5.32;0.68;;;25.30;99.90;;;;;;5033498;28;20018;-68
2022/09/01 11:11:44;;;;;;;5.18;0.60;;;25.60;99.90;;;;;;5033265;28;20026;-68
2022/09/01 11:14:22;;;;;;;3.13;0.60;;;26.00;99.90;;;;;;5033234;28;20550;-68
2022/09/01 11:17:22;;;;;;;0.98;0.40;;;26.70;99.90;;;;;;5034345;28;20354;-68
2022/09/01 11:19:54;;;;;;;4.22;0.65;;;27.20;99.90;;;;;;5037441;28;20029;-68
2022/09/01 11:23:03;;;;;;;2.42;0.80;;;27.80;99.90;;;;;;5037461;28;20461;-68
2022/09/01 11:25:39;;;;;;;1.70;0.77;;;28.40;98.60;;;;;;5008813;28;20067;-68
2022/09/01 11:28:09;;;;;;;0.77;0.60;;;28.70;98.60;;;;;;5036755;28;20024;-68
2022/09/01 11:30:51;;;;;;;4.80;0.60;;;28.90;96.70;;;;;;5037310;28;20025;-68
2022/09/01 11:33:36;;;;;;;1.67;0.70;;;29.10;96.50;;;;;;5037335;28;20037;-68
2022/09/01 11:36:05;;;;;;;2.90;0.60;;;29.40;96.10;;;;;;5037202;28;20069;-69
2022/09/01 11:38:42;;;;;;;4.22;0.80;;;29.60;93.90;;;;;;5037269;28;20029;-68
2022/09/01 11:41:08;;;;;;;2.53;0.70;;;29.40;93.60;;;;;;5037005;28;20030;-68
2022/09/01 11:43:35;;;;;;;1.40;0.60;;;29.40;92.40;;;;;;5036817;28;20036;-68
2022/09/01 11:46:21;;;;;;;2.17;0.57;;;29.60;93.00;;;;;;5036887;28;20092;-68
2022/09/01 11:48:48;;;;;;;1.42;0.40;;;29.10;93.20;;;;;;5035794;28;20052;-68
2022/09/01 11:51:14;;;;;;;1.63;0.70;;;29.20;92.50;;;;;;5036863;28;20101;-68
2022/09/01 11:53:41;;;;;;;0.50;0.50;;;29.50;91.70;;;;;;5036629;28;20028;-68
2022/09/01 11:56:12;;;;;;;3.72;0.60;;;29.80;88.80;;;;;;5036663;28;20462;-68
2022/09/01 11:58:38;;;;;;;1.15;0.80;;;29.90;90.40;;;;;;5036461;28;20030;-68
2022/09/01 12:01:15;;;;;;;2.13;0.65;;;29.60;86.10;;;;;;5035727;28;20032;-68
2022/09/01 12:03:42;;;;;;;1.60;0.60;;;29.70;90.20;;;;;;5036703;28;20028;-68
2022/09/01 12:06:12;;;;;;;2.83;0.57;;;29.60;90.10;;;;;;5036476;28;20022;-68
2022/09/01 12:08:41;;;;;;;0.60;0.38;;;30.00;89.10;;;;;;5036392;28;20010;-68
2022/09/01 12:11:17;;;;;;;1.00;0.60;;;30.10;90.40;;;;;;5036253;28;20017;-68
2022/09/01 12:13:58;;;;;;;0.68;0.45;;;30.60;85.10;;;;;;5035850;28;20071;-68
2022/09/01 12:16:24;;;;;;;1.30;0.85;;;30.60;84.90;;;;;;5036577;28;20152;-68
2022/09/01 12:18:52;;;;;;;1.27;0.65;;;31.10;83.80;;;;;;5036534;28;20074;-68
2022/09/01 12:21:42;;;;;;;1.65;0.40;;;31.50;82.60;;;;;;5036081;28;20029;-68
2022/09/01 12:24:20;;;;;;;1.35;0.52;;;31.70;79.90;;;;;;5035576;28;20021;-68
2022/09/01 12:26:48;;;;;;;0.85;0.55;;;31.60;79.80;;;;;;5036442;28;20436;-68
2022/09/01 12:29:15;;;;;;;5.18;0.68;;;31.30;78.10;;;;;;5035151;28;20489;-68
2022/09/01 12:31:43;;;;;;;1.48;0.60;;;31.40;79.40;;;;;;5035630;28;20025;-68
2022/09/01 12:34:45;;;;;;;1.08;0.70;;;31.00;76.60;;;;;;5036075;28;20072;-68
2022/09/01 12:37:21;;;;;;;2.92;0.50;;;29.80;79.50;;;;;;5004565;28;20040;-68
2022/09/01 12:39:53;;;;;;;1.30;0.50;;;29.60;81.10;;;;;;5035475;28;20505;-68
2022/09/01 12:42:19;;;;;;;1.70;0.38;;;30.30;80.00;;;;;;5036057;28;20055;-68
2022/09/01 12:44:53;;;;;;;0.60;0.50;;;31.00;77.00;;;;;;5035708;28;20473;-68
2022/09/01 12:47:34;;;;;;;0.57;0.40;;;31.70;74.00;;;;;;5035851;28;20033;-69
2022/09/01 12:50:01;;;;;;;1.00;0.50;;;32.20;73.30;;;;;;5035944;28;20030;-68
2022/09/01 12:52:28;;;;;;;2.35;0.40;;;32.00;72.90;;;;;;5035467;28;20025;-68
2022/09/01 12:55:06;;;;;;;0.57;0.32;;;32.20;72.20;;;;;;5034990;28;20048;-68
2022/09/01 12:57:39;;;;;;;0.95;0.30;;;32.50;72.30;;;;;;5035735;28;20021;-69
2022/09/01 13:00:18;;;;;;;0.70;0.47;;;32.10;69.60;;;;;;5035519;28;20017;-68
2022/09/01 13:03:07;;;;;;;1.73;0.60;;;31.10;72.20;;;;;;5035370;28;20037;-68
2022/09/01 13:05:36;;;;;;;0.63;0.38;;;30.70;72.00;;;;;;5031495;28;20540;-69
2022/09/01 13:08:10;;;;;;;2.63;0.40;;;31.20;73.80;;;;;;5015503;28;20088;-69
2022/09/01 13:10:43;;;;;;;1.05;0.30;;;31.80;69.60;;;;;;5015459;28;20026;-69